createdAt,value
2022-09-16T00:01:24.164Z,54.87
2022-09-16T00:03:56.690Z,55.11
2022-09-16T00:06:28.457Z,55.52
2022-09-16T00:08:58.364Z,56.44
2022-09-16T00:11:26.693Z,56.52
2022-09-16T00:13:55.381Z,56.71
2022-09-16T00:16:26.942Z,57.55
2022-09-16T00:18:56.555Z,56.82
2022-09-16T00:21:26.879Z,56.34
2022-09-16T00:23:56.245Z,56.20
2022-09-16T00:26:25.888Z,55.32
2022-09-16T00:28:54.477Z,55.46
2022-09-16T00:31:22.930Z,55.43
2022-09-16T00:33:51.629Z,55.48
2022-09-16T00:36:21.478Z,55.63
2022-09-16T00:38:55.008Z,55.52
2022-09-16T00:41:27.892Z,55.16
2022-09-16T00:43:58.854Z,54.96
2022-09-16T00:46:33.615Z,54.91
2022-09-16T00:49:06.041Z,55.36
2022-09-16T00:51:35.229Z,55.46
2022-09-16T00:54:09.723Z,54.86
2022-09-16T00:56:42.223Z,55.54
2022-09-16T00:59:15.855Z,56.77
2022-09-16T01:01:45.483Z,58.29
2022-09-16T01:04:20.294Z,60.87
2022-09-16T01:06:50.500Z,63.30
2022-09-16T01:09:24.181Z,63.64
2022-09-16T01:11:52.930Z,63.32
2022-09-16T01:14:42.939Z,62.11
2022-09-16T01:17:29.072Z,60.85
2022-09-16T01:20:16.167Z,59.84
2022-09-16T01:23:03.065Z,58.78
2022-09-16T01:25:50.379Z,59.16
2022-09-16T01:28:49.706Z,58.21
2022-09-16T01:31:23.735Z,58.42
2022-09-16T01:34:01.296Z,58.15
2022-09-16T01:36:42.228Z,57.88
2022-09-16T01:39:23.404Z,57.62
2022-09-16T01:42:05.945Z,58.58
2022-09-16T01:44:46.021Z,57.25
2022-09-16T01:47:23.894Z,57.32
2022-09-16T01:50:03.215Z,58.20
2022-09-16T01:52:43.849Z,57.49
2022-09-16T01:55:19.455Z,57.20
2022-09-16T01:57:55.079Z,56.93
2022-09-16T02:00:23.996Z,56.75
2022-09-16T02:02:59.787Z,56.53
2022-09-16T02:05:34.520Z,56.15
2022-09-16T02:08:07.511Z,55.82
2022-09-16T02:10:41.821Z,55.76
2022-09-16T02:13:18.665Z,55.98
2022-09-16T02:15:50.258Z,55.56
2022-09-16T02:18:26.168Z,55.73
2022-09-16T02:20:59.046Z,55.31
2022-09-16T02:23:33.404Z,55.41
2022-09-16T02:26:06.587Z,55.22
2022-09-16T02:28:39.963Z,55.16
2022-09-16T02:31:10.496Z,55.03
2022-09-16T02:33:46.444Z,55.19
2022-09-16T02:36:18.847Z,55.21
2022-09-16T02:38:50.689Z,55.10
2022-09-16T02:41:19.435Z,54.56
2022-09-16T02:43:47.997Z,54.43
2022-09-16T02:46:23.725Z,54.61
2022-09-16T02:49:04.227Z,54.18
2022-09-16T02:51:42.029Z,54.32
2022-09-16T02:54:17.961Z,54.44
2022-09-16T02:56:46.344Z,54.50
2022-09-16T02:59:16.817Z,54.20
2022-09-16T03:01:47.187Z,54.45
2022-09-16T03:04:19.736Z,54.18
2022-09-16T03:06:48.570Z,53.76
2022-09-16T03:09:19.355Z,53.51
2022-09-16T03:12:12.218Z,54.35
2022-09-16T03:15:19.880Z,53.40
2022-09-16T03:18:17.131Z,54.35
2022-09-16T03:20:56.133Z,54.15
2022-09-16T03:23:45.138Z,53.39
2022-09-16T03:26:21.773Z,53.09
2022-09-16T03:29:01.132Z,53.44
2022-09-16T03:31:33.546Z,53.09
2022-09-16T03:34:08.088Z,52.64
2022-09-16T03:36:44.741Z,52.80
2022-09-16T03:39:14.487Z,52.67
2022-09-16T03:41:43.591Z,52.04
2022-09-16T03:44:13.140Z,51.61
2022-09-16T03:46:41.484Z,51.23
2022-09-16T03:49:10.930Z,51.09
2022-09-16T03:51:40.685Z,50.93
2022-09-16T03:54:09.927Z,50.83
2022-09-16T03:56:38.489Z,50.40
2022-09-16T03:59:06.752Z,50.39
2022-09-16T04:01:35.131Z,50.28
2022-09-16T04:04:04.133Z,50.42
2022-09-16T04:06:32.458Z,49.40
2022-09-16T04:09:03.664Z,49.65
2022-09-16T04:11:32.307Z,49.70
2022-09-16T04:14:00.644Z,49.87
2022-09-16T04:16:29.012Z,49.40
2022-09-16T04:18:57.828Z,49.35
2022-09-16T04:21:26.325Z,49.40
2022-09-16T04:23:55.701Z,50.04
2022-09-16T04:26:25.765Z,50.19
2022-09-16T04:28:55.547Z,49.80
2022-09-16T04:31:24.161Z,49.91
2022-09-16T04:33:52.951Z,49.58
2022-09-16T04:36:21.621Z,49.52
2022-09-16T04:38:50.584Z,49.18
2022-09-16T04:41:21.380Z,48.90
2022-09-16T04:43:54.358Z,49.14
2022-09-16T04:46:23.580Z,48.77
2022-09-16T04:48:53.346Z,49.41
2022-09-16T04:51:22.545Z,49.54
2022-09-16T04:53:51.683Z,49.66
2022-09-16T04:56:22.360Z,49.40
2022-09-16T04:58:53.529Z,49.18
2022-09-16T05:01:25.243Z,48.59
2022-09-16T05:03:55.633Z,48.67
2022-09-16T05:06:26.547Z,49.11
2022-09-16T05:08:57.002Z,49.29
2022-09-16T05:11:27.631Z,49.67
2022-09-16T05:13:59.760Z,49.82
2022-09-16T05:16:28.893Z,50.02
2022-09-16T05:18:59.847Z,50.06
2022-09-16T05:21:30.001Z,50.14
2022-09-16T05:24:01.748Z,50.28
2022-09-16T05:26:32.588Z,50.31
2022-09-16T05:29:04.192Z,49.88
2022-09-16T05:31:34.987Z,49.97
2022-09-16T05:34:05.953Z,50.23
2022-09-16T05:36:37.762Z,50.17
2022-09-16T05:39:24.115Z,50.12
2022-09-16T05:41:55.754Z,49.38
2022-09-16T05:44:26.632Z,49.48
2022-09-16T05:46:55.316Z,49.23
2022-09-16T05:49:24.095Z,49.63
2022-09-16T05:51:53.739Z,50.15
2022-09-16T05:54:25.375Z,50.62
2022-09-16T05:56:54.422Z,50.52
2022-09-16T05:59:24.084Z,50.88
2022-09-16T06:01:53.924Z,50.38
2022-09-16T06:04:22.827Z,50.76
2022-09-16T06:06:51.135Z,50.75
2022-09-16T06:09:21.821Z,51.29
2022-09-16T06:11:52.191Z,51.54
2022-09-16T06:14:22.689Z,51.04
2022-09-16T06:16:53.470Z,51.48
2022-09-16T06:19:21.777Z,51.18
2022-09-16T06:21:50.235Z,50.76
2022-09-16T06:24:20.365Z,50.83
2022-09-16T06:26:50.121Z,50.71
2022-09-16T06:29:18.903Z,50.60
2022-09-16T06:31:47.796Z,49.78
2022-09-16T06:34:19.184Z,49.75
2022-09-16T06:36:48.224Z,49.43
2022-09-16T06:39:18.265Z,48.68
2022-09-16T06:41:51.986Z,48.33
2022-09-16T06:44:24.748Z,48.20
2022-09-16T06:46:53.052Z,47.23
2022-09-16T06:49:22.798Z,47.25
2022-09-16T06:51:51.687Z,47.34
2022-09-16T06:54:19.922Z,47.57
2022-09-16T06:56:49.644Z,46.89
2022-09-16T06:59:18.106Z,47.05
2022-09-16T07:01:46.459Z,46.38
2022-09-16T07:04:14.806Z,47.57
2022-09-16T07:07:08.037Z,47.00
2022-09-16T07:09:34.608Z,47.29
2022-09-16T07:12:03.675Z,46.84
2022-09-16T07:14:32.685Z,47.22
2022-09-16T07:17:01.663Z,47.03
2022-09-16T07:19:30.537Z,46.31
2022-09-16T07:22:00.284Z,46.70
2022-09-16T07:24:28.592Z,45.84
2022-09-16T07:26:57.213Z,46.23
2022-09-16T07:29:25.883Z,46.06
2022-09-16T07:31:54.317Z,45.69
2022-09-16T07:34:23.236Z,45.32
2022-09-16T07:36:51.955Z,45.25
2022-09-16T07:39:22.402Z,45.85
2022-09-16T07:41:51.068Z,46.32
2022-09-16T07:44:20.820Z,46.03
2022-09-16T07:46:51.391Z,45.77
2022-09-16T07:49:20.335Z,46.53
2022-09-16T07:51:49.325Z,47.19
2022-09-16T07:54:19.977Z,48.33
2022-09-16T07:56:50.365Z,48.03
2022-09-16T07:59:20.370Z,47.18
2022-09-16T08:01:50.562Z,46.65
2022-09-16T08:04:21.021Z,45.48
2022-09-16T08:06:50.332Z,46.91
2022-09-16T08:12:10.916Z,50.35
2022-09-16T08:14:39.999Z,49.83
2022-09-16T08:17:08.916Z,48.29
2022-09-16T08:19:38.461Z,47.58
2022-09-16T08:22:06.897Z,46.90
2022-09-16T08:24:35.722Z,46.32
2022-09-16T08:27:04.860Z,45.56
2022-09-16T08:29:34.662Z,44.94
2022-09-16T08:32:03.742Z,47.16
2022-09-16T08:34:32.048Z,46.76
2022-09-16T08:37:00.327Z,46.07
2022-09-16T08:39:28.866Z,45.11
2022-09-16T08:42:25.587Z,43.92
2022-09-16T08:45:02.596Z,42.86
2022-09-16T08:47:42.585Z,42.55
2022-09-16T08:50:17.282Z,42.08
2022-09-16T08:52:46.822Z,41.59
2022-09-16T08:55:20.045Z,41.08
2022-09-16T08:57:57.838Z,40.06
2022-09-16T09:00:27.959Z,40.56
2022-09-16T09:03:00.108Z,39.49
2022-09-16T09:05:40.199Z,39.47
2022-09-16T09:08:22.531Z,38.54
2022-09-16T09:10:58.091Z,39.39
2022-09-16T09:13:40.445Z,39.56
2022-09-16T09:16:21.965Z,39.54
2022-09-16T09:18:58.603Z,40.83
2022-09-16T09:21:36.739Z,40.96
2022-09-16T09:24:20.449Z,40.53
2022-09-16T09:26:51.529Z,39.49
2022-09-16T09:29:43.830Z,39.01
2022-09-16T09:32:26.233Z,39.11
2022-09-16T09:35:09.292Z,38.54
2022-09-16T09:37:53.961Z,38.19
2022-09-16T09:40:28.721Z,38.07
2022-09-16T09:43:10.670Z,37.98
2022-09-16T09:45:44.863Z,37.65
2022-09-16T09:48:21.993Z,37.47
2022-09-16T09:50:51.791Z,37.25
2022-09-16T09:53:26.139Z,36.94
2022-09-16T09:56:01.627Z,37.53
2022-09-16T09:58:38.387Z,36.96
2022-09-16T10:01:07.047Z,37.29
2022-09-16T10:03:38.029Z,37.43
2022-09-16T10:06:06.897Z,37.66
2022-09-16T10:08:42.526Z,36.95
2022-09-16T10:11:18.325Z,36.70
2022-09-16T10:13:51.587Z,40.03
2022-09-16T10:16:22.490Z,43.89
2022-09-16T10:19:00.016Z,43.95
2022-09-16T10:21:41.144Z,44.59
2022-09-16T10:24:29.228Z,44.96
2022-09-16T10:26:58.384Z,44.62
2022-09-16T10:29:27.172Z,45.55
2022-09-16T10:31:58.633Z,45.19
2022-09-16T10:34:33.698Z,44.82
2022-09-16T10:37:06.509Z,44.27
2022-09-16T10:39:35.528Z,44.29
2022-09-16T10:42:06.721Z,44.39
2022-09-16T10:44:38.177Z,44.63
2022-09-16T10:47:15.548Z,44.35
2022-09-16T10:49:49.832Z,44.47
2022-09-16T10:52:19.451Z,44.52
2022-09-16T10:54:49.089Z,44.58
2022-09-16T10:57:26.588Z,45.07
2022-09-16T11:00:00.224Z,44.75
2022-09-16T11:02:44.773Z,43.99
2022-09-16T11:05:26.212Z,44.01
2022-09-16T11:08:03.909Z,44.63
2022-09-16T11:10:43.134Z,44.74
2022-09-16T11:13:31.097Z,44.68
2022-09-16T11:16:17.611Z,44.33
2022-09-16T11:18:55.328Z,44.78
2022-09-16T11:21:55.861Z,44.81
2022-09-16T11:24:43.473Z,44.68
2022-09-16T11:27:21.853Z,44.63
2022-09-16T11:30:00.211Z,45.25
2022-09-16T11:32:40.325Z,49.65
2022-09-16T11:35:34.896Z,49.02
2022-09-16T11:38:16.515Z,49.92
2022-09-16T11:40:48.936Z,50.41
2022-09-16T11:43:54.344Z,49.99
2022-09-16T11:46:32.481Z,51.63
2022-09-16T11:49:28.710Z,51.49
2022-09-16T11:52:10.357Z,52.56
2022-09-16T11:55:07.491Z,54.78
2022-09-16T11:57:41.089Z,55.36
2022-09-16T12:00:13.936Z,55.39
2022-09-16T12:02:47.859Z,55.55
2022-09-16T12:05:21.751Z,56.03
2022-09-16T12:07:57.589Z,56.61
2022-09-16T12:10:33.685Z,56.27
2022-09-16T12:13:09.316Z,57.33
2022-09-16T12:15:44.419Z,57.19
2022-09-16T12:18:18.448Z,57.99
2022-09-16T12:20:52.179Z,58.53
2022-09-16T12:23:24.257Z,59.06
2022-09-16T12:26:05.811Z,58.88
2022-09-16T12:28:38.892Z,59.22
2022-09-16T12:31:15.364Z,59.48
2022-09-16T12:33:50.676Z,59.69
2022-09-16T12:36:24.804Z,59.10
2022-09-16T12:38:53.473Z,58.74
2022-09-16T12:41:46.081Z,58.23
2022-09-16T12:44:47.294Z,58.66
2022-09-16T12:47:36.606Z,58.39
2022-09-16T12:50:29.192Z,57.73
2022-09-16T12:53:25.176Z,57.31
2022-09-16T12:56:07.772Z,57.28
2022-09-16T12:59:00.364Z,56.83
2022-09-16T13:01:33.809Z,57.30
2022-09-16T13:04:10.026Z,56.75
2022-09-16T13:06:46.096Z,57.41
2022-09-16T13:09:22.751Z,57.12
2022-09-16T13:14:49.019Z,56.79
2022-09-16T13:17:29.696Z,56.64
2022-09-16T13:20:05.713Z,56.86
2022-09-16T13:22:45.347Z,57.59
2022-09-16T13:25:23.388Z,56.91
2022-09-16T13:27:58.625Z,56.56
2022-09-16T13:30:34.830Z,56.13
2022-09-16T13:33:26.496Z,56.53
2022-09-16T13:36:17.722Z,56.09
2022-09-16T13:38:49.719Z,56.32
2022-09-16T13:41:32.776Z,56.18
2022-09-16T13:44:02.095Z,56.20
2022-09-16T13:46:35.006Z,55.93
2022-09-16T13:49:19.916Z,55.73
2022-09-16T13:51:50.781Z,56.32
2022-09-16T13:54:28.254Z,55.51
2022-09-16T13:57:19.106Z,55.58
2022-09-16T14:00:08.769Z,56.82
2022-09-16T14:02:50.191Z,57.21
2022-09-16T14:05:32.275Z,57.76
2022-09-16T14:08:11.914Z,57.61
2022-09-16T14:10:48.543Z,57.29
2022-09-16T14:13:19.650Z,56.79
2022-09-16T14:15:51.242Z,56.49
2022-09-16T14:18:25.440Z,56.45
2022-09-16T14:21:02.385Z,56.35
2022-09-16T14:23:33.050Z,56.48
2022-09-16T14:26:12.167Z,56.50
2022-09-16T14:28:41.200Z,57.30
2022-09-16T14:31:14.687Z,58.07
2022-09-16T14:33:49.334Z,57.85
2022-09-16T14:36:24.183Z,57.63
2022-09-16T14:38:58.652Z,58.58
2022-09-16T14:41:31.892Z,58.89
2022-09-16T14:44:09.577Z,58.84
2022-09-16T14:46:43.480Z,58.91
2022-09-16T14:49:16.069Z,58.76
2022-09-16T14:51:47.739Z,58.65
2022-09-16T14:54:20.635Z,57.67
2022-09-16T14:57:00.089Z,57.26
2022-09-16T14:59:32.367Z,57.53
2022-09-16T15:02:05.233Z,58.32
2022-09-16T15:04:40.287Z,60.36
2022-09-16T15:07:17.403Z,60.27
2022-09-16T15:09:52.015Z,59.71
2022-09-16T15:12:29.352Z,59.01
2022-09-16T15:14:58.471Z,59.24
2022-09-16T15:17:29.131Z,59.22
2022-09-16T15:20:00.919Z,59.24
2022-09-16T15:22:29.932Z,59.66
2022-09-16T15:24:59.664Z,60.42
2022-09-16T15:27:29.739Z,59.88
2022-09-16T15:30:00.330Z,60.91
2022-09-16T15:32:31.947Z,60.10
2022-09-16T15:35:16.917Z,59.63
2022-09-16T15:37:46.008Z,59.71
2022-09-16T15:40:32.046Z,60.25
2022-09-16T15:43:25.976Z,60.01
2022-09-16T15:46:03.141Z,60.02
2022-09-16T15:48:35.163Z,60.29
2022-09-16T15:51:09.532Z,59.97
2022-09-16T15:53:45.898Z,59.83
2022-09-16T15:56:30.039Z,59.62
2022-09-16T15:59:01.104Z,59.39
2022-09-16T16:01:41.060Z,59.32
2022-09-16T16:04:13.388Z,59.20
2022-09-16T16:06:49.257Z,58.97
2022-09-16T16:09:32.919Z,58.73
2022-09-16T16:12:03.036Z,59.15
2022-09-16T16:14:32.969Z,59.47
2022-09-16T16:17:18.828Z,59.54
2022-09-16T16:19:49.528Z,59.34
2022-09-16T16:22:20.751Z,60.66
2022-09-16T16:24:49.518Z,61.54
2022-09-16T16:27:17.787Z,62.03
2022-09-16T16:29:46.031Z,62.30
2022-09-16T16:32:16.350Z,62.04
2022-09-16T16:34:47.793Z,64.56
2022-09-16T16:37:40.374Z,67.73
2022-09-16T16:40:08.786Z,69.47
2022-09-16T16:42:37.375Z,73.08
2022-09-16T16:45:06.580Z,80.98
2022-09-16T16:47:34.903Z,81.37
2022-09-16T16:50:03.420Z,79.67
2022-09-16T16:52:31.874Z,78.46
2022-09-16T16:55:00.136Z,77.27
2022-09-16T16:57:30.019Z,75.98
2022-09-16T16:59:58.774Z,75.00
2022-09-16T17:02:27.200Z,74.81
2022-09-16T17:04:56.150Z,74.74
2022-09-16T17:07:26.595Z,74.11
2022-09-16T17:09:57.429Z,73.79
2022-09-16T17:12:26.479Z,73.14
2022-09-16T17:14:56.166Z,73.08
2022-09-16T17:17:30.475Z,73.15
2022-09-16T17:20:00.712Z,73.44
2022-09-16T17:22:29.207Z,73.12
2022-09-16T17:24:57.538Z,72.99
2022-09-16T17:27:27.740Z,72.62
2022-09-16T17:30:01.029Z,72.36
2022-09-16T17:32:30.168Z,71.81
2022-09-16T17:34:58.496Z,72.22
2022-09-16T17:37:26.837Z,71.75
2022-09-16T17:39:55.322Z,72.37
2022-09-16T17:42:23.770Z,72.84
2022-09-16T17:44:52.158Z,72.56
2022-09-16T17:47:22.020Z,72.03
2022-09-16T17:49:50.311Z,72.20
2022-09-16T17:52:18.572Z,72.69
2022-09-16T17:54:47.063Z,71.89
2022-09-16T17:57:15.362Z,72.20
2022-09-16T17:59:43.739Z,71.79
2022-09-16T18:02:12.288Z,71.47
2022-09-16T18:04:44.086Z,71.02
2022-09-16T18:07:12.397Z,71.66
2022-09-16T18:09:40.813Z,73.58
2022-09-16T18:12:09.203Z,80.43
2022-09-16T18:14:37.554Z,83.56
2022-09-16T18:17:06.170Z,82.79
2022-09-16T18:19:34.657Z,80.37
2022-09-16T18:22:04.845Z,78.25
2022-09-16T18:24:33.376Z,77.07
2022-09-16T18:27:02.538Z,76.24
2022-09-16T18:29:31.575Z,74.89
2022-09-16T18:32:00.325Z,73.46
2022-09-16T18:34:33.270Z,72.67
2022-09-16T18:37:02.680Z,72.33
2022-09-16T18:39:32.513Z,71.66
2022-09-16T18:42:00.928Z,70.81
2022-09-16T18:44:29.505Z,70.37
2022-09-16T18:46:57.811Z,70.13
2022-09-16T18:49:28.996Z,70.14
2022-09-16T18:51:57.828Z,69.88
2022-09-16T18:54:28.794Z,69.65
2022-09-16T18:57:00.171Z,69.70
2022-09-16T18:59:30.671Z,69.94
2022-09-16T19:02:01.380Z,70.68
2022-09-16T19:04:32.768Z,70.28
2022-09-16T19:07:07.944Z,71.43
2022-09-16T19:09:39.752Z,71.42
2022-09-16T19:12:11.345Z,71.24
2022-09-16T19:14:40.958Z,70.55
2022-09-16T19:17:09.918Z,70.91
2022-09-16T19:19:38.861Z,71.44
2022-09-16T19:22:07.432Z,70.56
2022-09-16T19:24:37.278Z,70.92
2022-09-16T19:27:05.890Z,70.73
2022-09-16T19:29:35.882Z,72.21
2022-09-16T19:32:04.437Z,75.98
2022-09-16T19:34:32.979Z,77.11
2022-09-16T19:37:02.094Z,75.87
2022-09-16T19:39:31.809Z,75.51
2022-09-16T19:42:03.562Z,75.21
2022-09-16T19:44:32.554Z,74.04
2022-09-16T19:47:02.545Z,74.82
2022-09-16T19:49:31.104Z,74.83
2022-09-16T19:51:59.899Z,75.34
2022-09-16T19:54:28.539Z,75.78
2022-09-16T19:56:57.300Z,75.67
2022-09-16T19:59:26.688Z,75.40
2022-09-16T20:01:55.259Z,75.22
2022-09-16T20:04:25.519Z,75.09
2022-09-16T20:06:56.580Z,73.86
2022-09-16T20:09:27.794Z,73.67
2022-09-16T20:11:56.716Z,72.80
2022-09-16T20:14:33.575Z,72.73
2022-09-16T20:17:03.021Z,71.89
2022-09-16T20:19:33.991Z,71.21
2022-09-16T20:22:02.814Z,71.33
2022-09-16T20:24:31.512Z,70.80
2022-09-16T20:27:00.036Z,70.57
2022-09-16T20:29:28.353Z,70.73
2022-09-16T20:31:56.986Z,70.14
2022-09-16T20:34:25.391Z,69.85
2022-09-16T20:36:57.101Z,69.23
2022-09-16T20:39:25.624Z,69.01
2022-09-16T20:41:54.085Z,68.52
2022-09-16T20:44:22.549Z,68.84
2022-09-16T20:46:51.456Z,68.43
2022-09-16T20:49:23.026Z,68.11
2022-09-16T20:51:52.277Z,67.77
2022-09-16T20:54:21.987Z,67.30
2022-09-16T20:56:51.190Z,67.48
2022-09-16T20:59:21.530Z,67.32
2022-09-16T21:01:50.659Z,66.26
2022-09-16T21:04:21.138Z,66.60
2022-09-16T21:06:49.841Z,66.01
2022-09-16T21:09:19.545Z,66.46
2022-09-16T21:11:49.803Z,65.53
2022-09-16T21:14:21.703Z,65.38
2022-09-16T21:16:51.683Z,65.96
2022-09-16T21:19:20.320Z,65.84
2022-09-16T21:21:48.696Z,65.84
2022-09-16T21:24:18.383Z,66.17
2022-09-16T21:26:47.265Z,66.05
2022-09-16T21:29:21.238Z,65.28
2022-09-16T21:31:50.470Z,64.96
2022-09-16T21:34:21.989Z,64.89
2022-09-16T21:36:51.700Z,65.15
2022-09-16T21:39:21.864Z,65.03
2022-09-16T21:41:50.731Z,64.63
2022-09-16T21:44:20.715Z,64.68
2022-09-16T21:46:49.735Z,64.31
2022-09-16T21:49:22.899Z,64.43
2022-09-16T21:51:52.264Z,65.07
2022-09-16T21:54:21.348Z,66.86
2022-09-16T21:56:50.962Z,66.00
2022-09-16T21:59:21.441Z,66.04
2022-09-16T22:01:51.105Z,66.14
2022-09-16T22:04:21.854Z,65.85
2022-09-16T22:06:50.861Z,65.48
2022-09-16T22:09:19.212Z,65.76
2022-09-16T22:11:48.179Z,65.27
2022-09-16T22:14:17.415Z,66.68
2022-09-16T22:16:47.222Z,67.27
2022-09-16T22:19:17.891Z,67.08
2022-09-16T22:21:49.634Z,67.14
2022-09-16T22:24:20.438Z,66.19
2022-09-16T22:26:50.600Z,65.81
2022-09-16T22:29:19.410Z,65.79
2022-09-16T22:31:49.653Z,65.74
2022-09-16T22:34:18.403Z,64.66
2022-09-16T22:36:46.792Z,64.28
2022-09-16T22:39:17.801Z,64.24
2022-09-16T22:41:46.689Z,64.84
2022-09-16T22:44:15.410Z,64.93
2022-09-16T22:46:46.313Z,64.30
2022-09-16T22:49:17.165Z,64.15
2022-09-16T22:51:46.116Z,64.21
2022-09-16T22:54:15.848Z,64.04
2022-09-16T22:56:45.246Z,64.17
2022-09-16T22:59:18.263Z,64.23
2022-09-16T23:01:48.098Z,64.53
2022-09-16T23:04:18.531Z,64.31
2022-09-16T23:06:47.369Z,63.86
2022-09-16T23:09:16.013Z,63.70
2022-09-16T23:11:44.802Z,63.95
2022-09-16T23:14:15.298Z,64.37
2022-09-16T23:16:43.804Z,64.72
2022-09-16T23:19:13.078Z,65.01
2022-09-16T23:21:43.762Z,64.72
2022-09-16T23:24:15.769Z,65.00
2022-09-16T23:26:44.607Z,64.50
2022-09-16T23:29:14.431Z,64.85
2022-09-16T23:31:45.457Z,64.25
2022-09-16T23:34:16.856Z,63.83
2022-09-16T23:36:47.069Z,64.26
2022-09-16T23:39:16.957Z,64.63
2022-09-16T23:41:46.019Z,64.63
2022-09-16T23:44:16.086Z,63.89
2022-09-16T23:46:45.089Z,63.79
2022-09-16T23:49:16.952Z,63.87
2022-09-16T23:51:47.359Z,64.20
2022-09-16T23:54:17.279Z,64.25
2022-09-16T23:56:45.927Z,64.52
2022-09-16T23:59:14.500Z,64.18
